createdAt,value
2019-03-24T01:57:14.191Z,98.20
2019-03-24T01:59:45.113Z,98.40
2019-03-24T02:02:16.025Z,98.20
2019-03-24T02:04:46.950Z,98.50
2019-03-24T02:07:17.821Z,98.10
2019-03-24T02:09:48.753Z,98.00
2019-03-24T02:12:19.634Z,98.10
2019-03-24T02:14:50.572Z,97.90
2019-03-24T02:17:21.557Z,97.90
2019-03-24T02:19:52.553Z,98.10
2019-03-24T02:22:23.429Z,98.20
2019-03-24T02:24:54.365Z,98.40
2019-03-24T02:27:25.249Z,97.80
2019-03-24T02:29:56.156Z,97.90
2019-03-24T02:32:27.032Z,98.00
2019-03-24T02:34:57.955Z,97.80
2019-03-24T02:37:28.831Z,97.80
2019-03-24T02:39:59.770Z,98.30
2019-03-24T02:42:30.656Z,98.30
2019-03-24T02:45:01.594Z,98.60
2019-03-24T02:47:32.517Z,98.40
2019-03-24T02:50:03.526Z,98.20
2019-03-24T02:52:34.413Z,98.10
2019-03-24T02:55:05.699Z,98.20
2019-03-24T02:57:36.595Z,98.10
2019-03-24T03:00:08.213Z,98.40
2019-03-24T03:02:39.106Z,98.40
2019-03-24T03:05:10.982Z,98.30
2019-03-24T03:07:41.927Z,98.40
2019-03-24T03:10:13.174Z,98.40
2019-03-24T03:12:44.050Z,98.30
2019-03-24T03:15:15.389Z,98.20
2019-03-24T03:17:46.258Z,98.50
2019-03-24T03:20:18.137Z,98.50
2019-03-24T03:22:49.003Z,98.40
2019-03-24T03:25:19.939Z,98.70
2019-03-24T03:27:50.807Z,98.60
2019-03-24T03:30:21.743Z,98.80
2019-03-24T03:32:52.596Z,98.70
2019-03-24T03:35:25.054Z,98.70
2019-03-24T03:37:55.937Z,98.90
2019-03-24T03:40:26.862Z,98.90
2019-03-24T03:42:57.755Z,98.90
2019-03-24T03:45:29.648Z,99.30
2019-03-24T03:48:00.592Z,99.50
2019-03-24T03:50:32.603Z,99.20
2019-03-24T03:53:03.479Z,99.30
2019-03-24T03:55:34.893Z,99.40
2019-03-24T03:58:05.794Z,99.50
2019-03-24T04:00:38.035Z,99.30
2019-03-24T04:03:08.914Z,99.10
2019-03-24T04:05:39.842Z,99.10
2019-03-24T04:08:10.727Z,99.10
2019-03-24T04:10:41.659Z,99.10
2019-03-24T04:13:12.547Z,99.70
2019-03-24T04:15:43.458Z,99.80
2019-03-24T04:18:14.355Z,99.90
2019-03-24T04:20:45.398Z,99.90
2019-03-24T04:23:16.285Z,99.80
2019-03-24T04:25:47.279Z,99.50
2019-03-24T04:28:18.183Z,99.60
2019-03-24T04:30:49.099Z,99.50
2019-03-24T04:33:19.979Z,99.70
2019-03-24T04:35:53.950Z,99.70
2019-03-24T04:38:24.841Z,99.50
2019-03-24T04:40:55.742Z,99.30
2019-03-24T04:43:26.625Z,99.40
2019-03-24T04:45:57.633Z,99.50
2019-03-24T04:48:28.654Z,99.40
2019-03-24T04:50:59.989Z,99.50
2019-03-24T04:53:30.882Z,99.70
2019-03-24T04:56:01.794Z,99.60
2019-03-24T04:58:32.680Z,99.40
2019-03-24T05:01:03.695Z,99.50
2019-03-24T05:03:34.583Z,99.70
2019-03-24T05:06:06.053Z,99.90
2019-03-24T05:08:37.334Z,99.90
2019-03-24T05:11:08.313Z,99.90
2019-03-24T05:13:39.205Z,99.80
2019-03-24T05:16:10.121Z,99.90
2019-03-24T05:18:41.006Z,99.90
2019-03-24T05:21:11.913Z,99.80
2019-03-24T05:23:46.035Z,99.90
2019-03-24T05:26:16.482Z,99.90
2019-03-24T05:28:47.366Z,99.90
2019-03-24T05:31:18.294Z,99.90
2019-03-24T05:33:50.101Z,99.90
2019-03-24T05:36:21.021Z,99.90
2019-03-24T05:38:51.911Z,99.90
2019-03-24T05:41:22.837Z,99.90
2019-03-24T05:43:53.731Z,99.90
2019-03-24T05:46:24.658Z,99.90
2019-03-24T05:48:55.947Z,99.90
2019-03-24T05:51:26.951Z,99.90
2019-03-24T05:53:57.825Z,99.90
2019-03-24T05:56:31.024Z,99.90
2019-03-24T05:59:01.929Z,99.90
2019-03-24T06:01:33.274Z,99.90
2019-03-24T06:04:04.154Z,99.90
2019-03-24T06:06:35.086Z,99.90
2019-03-24T06:09:07.905Z,99.90
2019-03-24T06:11:38.839Z,99.90
2019-03-24T06:14:09.717Z,99.90
2019-03-24T06:16:40.634Z,99.90
2019-03-24T06:19:11.521Z,99.90
2019-03-24T06:21:42.445Z,99.90
2019-03-24T06:24:13.325Z,99.90
2019-03-24T06:26:44.299Z,99.00
2019-03-24T06:29:15.137Z,99.40
2019-03-24T06:31:46.122Z,99.40
2019-03-24T06:34:17.010Z,98.70
2019-03-24T06:36:47.926Z,99.00
2019-03-24T06:39:19.881Z,98.20
2019-03-24T06:41:50.818Z,98.10
2019-03-24T06:44:21.698Z,97.80
2019-03-24T06:46:52.631Z,98.10
2019-03-24T06:49:23.659Z,97.20
2019-03-24T06:51:54.595Z,97.10
2019-03-24T06:54:25.468Z,97.80
2019-03-24T06:56:56.381Z,97.00
2019-03-24T06:59:27.281Z,97.40
2019-03-24T07:01:58.206Z,97.10
2019-03-24T07:04:29.085Z,96.40
2019-03-24T07:07:01.070Z,96.80
2019-03-24T07:09:31.941Z,96.40
2019-03-24T07:12:02.874Z,96.00
2019-03-24T07:14:33.750Z,96.00
2019-03-24T07:17:04.671Z,95.80
2019-03-24T07:19:35.537Z,95.30
2019-03-24T07:22:07.362Z,95.20
2019-03-24T07:24:38.410Z,94.90
2019-03-24T07:27:09.726Z,94.90
2019-03-24T07:29:41.277Z,95.30
2019-03-24T07:32:12.321Z,94.40
2019-03-24T07:34:43.197Z,94.40
2019-03-24T07:37:14.314Z,95.10
2019-03-24T07:39:45.194Z,94.60
2019-03-24T07:42:16.123Z,94.60
2019-03-24T07:44:47.000Z,94.80
2019-03-24T07:47:17.913Z,94.80
2019-03-24T07:49:48.842Z,93.70
2019-03-24T07:52:19.953Z,93.50
2019-03-24T07:54:50.837Z,92.90
2019-03-24T07:57:21.743Z,94.10
2019-03-24T07:59:52.904Z,93.40
2019-03-24T08:02:24.939Z,92.20
2019-03-24T08:05:16.062Z,92.10
2019-03-24T08:08:02.612Z,91.70
2019-03-24T08:10:34.682Z,92.30
2019-03-24T08:13:05.961Z,92.00
2019-03-24T08:15:36.837Z,90.90
2019-03-24T08:18:08.145Z,90.80
2019-03-24T08:20:39.026Z,90.20
2019-03-24T08:23:09.941Z,90.80
2019-03-24T08:25:41.254Z,89.20
2019-03-24T08:28:12.738Z,90.10
2019-03-24T08:30:43.965Z,90.20
2019-03-24T08:33:14.962Z,89.90
2019-03-24T08:35:45.838Z,88.40
2019-03-24T08:38:16.774Z,89.80
2019-03-24T08:40:47.682Z,86.00
2019-03-24T08:43:19.874Z,83.60
2019-03-24T08:45:50.765Z,84.80
2019-03-24T08:48:21.689Z,84.30
2019-03-24T08:50:52.621Z,85.80
2019-03-24T08:53:23.561Z,83.70
2019-03-24T08:55:54.449Z,84.40
2019-03-24T08:58:25.449Z,78.20
2019-03-24T09:00:56.330Z,80.20
2019-03-24T09:03:27.316Z,80.30
2019-03-24T09:05:58.217Z,79.70
2019-03-24T09:08:29.339Z,80.20
2019-03-24T09:11:00.238Z,78.00
2019-03-24T09:13:31.161Z,79.40
2019-03-24T09:16:02.037Z,73.20
2019-03-24T09:18:33.468Z,74.10
2019-03-24T09:21:04.423Z,74.20
2019-03-24T09:23:35.338Z,75.20
2019-03-24T09:26:06.228Z,69.70
2019-03-24T09:28:37.158Z,76.70
2019-03-24T09:31:08.065Z,72.70
2019-03-24T09:33:40.637Z,71.40
2019-03-24T09:36:11.525Z,66.90
2019-03-24T09:38:42.486Z,69.60
2019-03-24T09:41:13.354Z,69.60
2019-03-24T09:43:44.273Z,72.50
2019-03-24T09:46:15.180Z,64.20
2019-03-24T09:48:46.202Z,60.80
2019-03-24T09:51:17.159Z,67.20
2019-03-24T09:53:48.429Z,63.00
2019-03-24T09:56:19.317Z,64.40
2019-03-24T09:58:50.646Z,64.70
2019-03-24T10:01:21.538Z,66.80
2019-03-24T10:03:52.461Z,61.10
2019-03-24T10:06:23.330Z,61.10
2019-03-24T10:08:54.252Z,63.50
2019-03-24T10:11:25.209Z,65.10
2019-03-24T10:13:56.121Z,64.90
2019-03-24T10:16:27.017Z,55.60
2019-03-24T10:18:58.026Z,61.60
2019-03-24T10:21:28.950Z,60.00
2019-03-24T10:23:59.897Z,59.60
2019-03-24T10:26:30.773Z,63.00
2019-03-24T10:29:01.787Z,60.40
2019-03-24T10:31:32.665Z,60.70
2019-03-24T10:34:03.606Z,61.80
2019-03-24T10:36:34.497Z,65.40
2019-03-24T10:39:06.870Z,63.70
2019-03-24T10:41:37.752Z,60.40
2019-03-24T10:44:08.661Z,66.60
2019-03-24T10:46:39.541Z,60.90
2019-03-24T10:49:10.441Z,61.60
2019-03-24T10:51:41.471Z,65.80
2019-03-24T10:54:12.416Z,62.60
2019-03-24T10:56:43.304Z,60.00
2019-03-24T10:59:14.258Z,59.70
2019-03-24T11:01:45.154Z,61.20
2019-03-24T11:04:17.121Z,64.80
2019-03-24T11:06:48.103Z,62.40
2019-03-24T11:09:19.162Z,63.10
2019-03-24T11:11:50.045Z,58.10
2019-03-24T11:14:20.971Z,58.50
2019-03-24T11:16:51.852Z,59.60
2019-03-24T11:19:22.879Z,60.30
2019-03-24T11:21:53.839Z,63.30
2019-03-24T11:24:24.761Z,63.20
2019-03-24T11:26:55.654Z,56.80
2019-03-24T11:29:26.661Z,57.00
2019-03-24T11:31:57.542Z,64.60
2019-03-24T11:34:28.558Z,61.90
2019-03-24T11:36:59.444Z,63.10
2019-03-24T11:39:30.381Z,64.70
2019-03-24T11:42:01.463Z,67.50
2019-03-24T11:44:34.718Z,61.80
2019-03-24T11:47:05.096Z,61.60
2019-03-24T11:49:45.780Z,60.80
2019-03-24T11:52:08.746Z,61.30
2019-03-24T11:54:39.754Z,64.60
2019-03-24T11:57:10.658Z,65.30
2019-03-24T11:59:42.636Z,61.10
2019-03-24T12:02:13.566Z,59.10
2019-03-24T12:04:44.893Z,58.00
2019-03-24T12:07:15.783Z,57.00
2019-03-24T12:09:46.813Z,54.20
2019-03-24T12:12:17.780Z,64.00
2019-03-24T12:15:09.029Z,59.40
2019-03-24T12:17:39.938Z,55.20
2019-03-24T12:20:11.153Z,54.40
2019-03-24T12:22:42.050Z,55.30
2019-03-24T12:25:13.074Z,56.10
2019-03-24T12:27:44.056Z,53.80
2019-03-24T12:30:15.512Z,56.70
2019-03-24T12:32:46.438Z,56.40
2019-03-24T12:35:17.403Z,54.70
2019-03-24T12:37:48.294Z,54.90
2019-03-24T12:40:20.366Z,53.00
2019-03-24T12:42:51.263Z,53.10
2019-03-24T12:45:22.508Z,48.60
2019-03-24T12:47:53.391Z,55.30
2019-03-24T12:50:31.354Z,43.60
2019-03-24T12:52:56.938Z,53.40
2019-03-24T12:55:27.954Z,55.20
2019-03-24T12:57:58.858Z,55.90
2019-03-24T13:00:37.711Z,47.60
2019-03-24T13:03:08.751Z,51.90
2019-03-24T13:05:39.691Z,49.70
2019-03-24T13:08:20.142Z,50.80
2019-03-24T13:10:51.083Z,48.40
2019-03-24T13:13:22.024Z,49.10
2019-03-24T13:15:52.967Z,53.40
2019-03-24T13:18:23.850Z,56.10
2019-03-24T13:20:54.858Z,54.90
2019-03-24T13:23:25.753Z,50.10
2019-03-24T13:25:56.701Z,53.10
2019-03-24T13:28:27.586Z,52.20
2019-03-24T13:30:58.508Z,54.80
2019-03-24T13:33:29.401Z,52.30
2019-03-24T13:36:10.014Z,53.40
2019-03-24T13:38:40.922Z,55.40
2019-03-24T13:41:11.937Z,56.80
2019-03-24T13:43:42.848Z,55.50
2019-03-24T13:46:14.009Z,58.10
2019-03-24T13:48:45.975Z,59.90
2019-03-24T13:51:16.894Z,58.20
2019-03-24T13:53:47.802Z,57.00
2019-03-24T13:56:18.762Z,58.20
2019-03-24T13:58:49.678Z,57.80
2019-03-24T14:01:21.059Z,60.00
2019-03-24T14:03:52.015Z,58.30
2019-03-24T14:06:22.977Z,61.80
2019-03-24T14:08:54.190Z,59.10
2019-03-24T14:11:25.151Z,61.50
2019-03-24T14:13:56.033Z,64.60
2019-03-24T14:16:28.055Z,62.60
2019-03-24T14:18:58.945Z,62.80
2019-03-24T14:21:29.877Z,60.00
2019-03-24T14:24:00.765Z,60.70
2019-03-24T14:26:31.831Z,63.70
2019-03-24T14:29:02.736Z,64.40
2019-03-24T14:31:33.765Z,62.50
2019-03-24T14:34:04.690Z,62.20
2019-03-24T14:36:35.614Z,62.10
2019-03-24T14:39:07.578Z,62.60
2019-03-24T14:41:38.518Z,63.30
2019-03-24T14:44:10.483Z,62.80
2019-03-24T14:46:41.443Z,64.00
2019-03-24T14:49:12.351Z,63.30
2019-03-24T14:51:43.285Z,63.20
2019-03-24T14:54:15.301Z,64.90
2019-03-24T14:56:47.385Z,64.10
2019-03-24T14:59:18.688Z,66.60
2019-03-24T15:01:49.733Z,66.00
2019-03-24T15:04:20.642Z,65.40
2019-03-24T15:06:51.741Z,65.90
2019-03-24T15:09:22.693Z,64.20
2019-03-24T15:11:53.666Z,65.60
2019-03-24T15:14:24.605Z,67.40
2019-03-24T15:16:55.685Z,67.90
2019-03-24T15:19:26.714Z,65.40
2019-03-24T15:21:58.080Z,63.80
2019-03-24T15:24:29.033Z,63.20
2019-03-24T15:27:00.494Z,67.60
2019-03-24T15:29:31.489Z,63.40
2019-03-24T15:32:03.758Z,66.10
2019-03-24T15:34:34.675Z,65.60
2019-03-24T15:37:05.601Z,64.60
2019-03-24T15:39:37.059Z,65.00
2019-03-24T15:42:11.192Z,66.60
2019-03-24T15:44:42.235Z,66.80
2019-03-24T15:47:13.295Z,64.50
2019-03-24T15:49:44.354Z,64.90
2019-03-24T15:52:15.337Z,65.00
2019-03-24T15:54:46.368Z,64.60
2019-03-24T15:57:17.819Z,63.90
2019-03-24T15:59:50.404Z,64.50
2019-03-24T16:02:21.774Z,66.50
2019-03-24T16:04:52.760Z,66.90
2019-03-24T16:07:23.687Z,66.70
2019-03-24T16:09:54.573Z,68.60
2019-03-24T16:12:25.511Z,67.70
2019-03-24T16:14:56.409Z,67.70
2019-03-24T16:17:27.508Z,66.80
2019-03-24T16:19:58.398Z,67.50
2019-03-24T16:22:31.137Z,67.20
2019-03-24T16:25:02.059Z,67.00
2019-03-24T16:27:35.028Z,66.90
2019-03-24T16:30:06.338Z,66.40
2019-03-24T16:32:37.413Z,67.90
2019-03-24T16:35:08.794Z,68.20
2019-03-24T16:37:39.744Z,68.60
2019-03-24T16:40:10.741Z,68.00
2019-03-24T16:42:42.045Z,69.80
2019-03-24T16:45:13.250Z,69.00
2019-03-24T16:47:44.270Z,67.90
2019-03-24T16:50:16.226Z,68.80
2019-03-24T16:52:47.577Z,69.50
2019-03-24T16:55:18.562Z,69.20
2019-03-24T16:57:49.920Z,70.30
2019-03-24T17:00:20.993Z,68.20
2019-03-24T17:02:52.028Z,70.10
2019-03-24T17:05:27.498Z,69.80
2019-03-24T17:07:58.168Z,69.40
2019-03-24T17:10:29.362Z,69.40
2019-03-24T17:13:02.026Z,69.80
2019-03-24T17:15:33.006Z,70.80
2019-03-24T17:18:04.559Z,71.40
2019-03-24T17:20:35.526Z,71.60
2019-03-24T17:23:07.151Z,72.10
2019-03-24T17:25:38.088Z,72.30
2019-03-24T17:28:09.013Z,73.00
2019-03-24T17:30:39.934Z,72.60
2019-03-24T17:33:11.318Z,72.20
2019-03-24T17:35:42.309Z,73.40
2019-03-24T17:38:13.219Z,74.20
2019-03-24T17:40:44.117Z,74.30
2019-03-24T17:43:16.302Z,74.30
2019-03-24T17:45:47.202Z,75.10
2019-03-24T17:48:18.199Z,75.90
2019-03-24T17:50:50.153Z,75.70
2019-03-24T17:53:21.452Z,76.10
2019-03-24T17:55:52.518Z,77.40
2019-03-24T17:58:23.528Z,78.10
2019-03-24T18:00:57.341Z,78.10
2019-03-24T18:03:28.269Z,78.70
2019-03-24T18:05:59.742Z,79.40
2019-03-24T18:08:30.673Z,79.80
2019-03-24T18:11:01.609Z,79.60
2019-03-24T18:13:33.585Z,79.00
2019-03-24T18:16:04.511Z,78.60
2019-03-24T18:18:35.507Z,78.50
2019-03-24T18:21:06.769Z,79.10
2019-03-24T18:23:37.795Z,79.60
2019-03-24T18:26:08.690Z,81.50
2019-03-24T18:28:39.609Z,82.00
2019-03-24T18:31:21.803Z,83.20
2019-03-24T18:33:52.801Z,83.40
2019-03-24T18:36:23.678Z,83.30
2019-03-24T18:38:55.441Z,83.60
2019-03-24T18:41:26.333Z,84.50
2019-03-24T18:43:57.577Z,84.80
2019-03-24T18:46:28.502Z,85.00
2019-03-24T18:48:59.425Z,84.90
2019-03-24T18:51:30.316Z,85.70
2019-03-24T18:54:01.277Z,85.70
2019-03-24T18:56:32.213Z,85.50
2019-03-24T18:59:03.157Z,85.90
2019-03-24T19:01:34.069Z,85.10
2019-03-24T19:04:04.993Z,85.70
2019-03-24T19:06:35.886Z,86.50
2019-03-24T19:09:09.390Z,86.20
2019-03-24T19:11:40.278Z,86.80
2019-03-24T19:14:11.283Z,87.60
2019-03-24T19:16:42.168Z,87.20
2019-03-24T19:19:13.183Z,88.60
2019-03-24T19:21:44.067Z,88.80
2019-03-24T19:24:15.074Z,88.20
2019-03-24T19:26:45.986Z,89.30
2019-03-24T19:29:18.065Z,89.10
2019-03-24T19:31:49.354Z,89.80
2019-03-24T19:34:20.284Z,89.50
2019-03-24T19:36:51.165Z,90.00
2019-03-24T19:39:23.387Z,89.60
2019-03-24T19:41:54.650Z,89.50
2019-03-24T19:44:25.888Z,90.00
2019-03-24T19:47:07.793Z,90.20
2019-03-24T19:49:39.174Z,90.30
2019-03-24T19:52:10.300Z,90.20
2019-03-24T19:54:41.283Z,90.60
2019-03-24T19:57:12.762Z,90.50
2019-03-24T19:59:44.357Z,90.90
2019-03-24T20:02:15.692Z,90.80
2019-03-24T20:04:47.244Z,90.80
2019-03-24T20:07:18.294Z,90.90
2019-03-24T20:09:49.632Z,90.60
2019-03-24T20:12:20.537Z,90.90
2019-03-24T20:14:51.590Z,91.50
2019-03-24T20:17:24.847Z,90.90
2019-03-24T20:19:56.206Z,91.60
2019-03-24T20:22:27.243Z,91.50
2019-03-24T20:24:58.443Z,91.50
2019-03-24T20:27:29.589Z,91.50
2019-03-24T20:30:00.610Z,91.60
2019-03-24T20:32:31.704Z,91.60
2019-03-24T20:35:02.917Z,91.90
2019-03-24T20:37:34.213Z,91.90
2019-03-24T20:40:05.814Z,91.80
2019-03-24T20:42:36.751Z,92.00
2019-03-24T20:45:09.939Z,92.40
2019-03-24T20:47:40.928Z,92.40
2019-03-24T20:50:12.478Z,92.10
2019-03-24T20:52:43.769Z,92.30
2019-03-24T20:55:15.253Z,92.10
2019-03-24T20:57:46.440Z,92.20
2019-03-24T21:00:37.939Z,92.60
2019-03-24T21:03:09.984Z,92.50
2019-03-24T21:05:40.997Z,93.00
2019-03-24T21:08:12.050Z,92.60
2019-03-24T21:10:43.122Z,93.00
2019-03-24T21:13:14.186Z,92.80
2019-03-24T21:15:45.386Z,93.10
2019-03-24T21:18:16.274Z,92.60
2019-03-24T21:20:47.230Z,92.50
2019-03-24T21:23:28.895Z,93.50
2019-03-24T21:25:51.093Z,93.80
2019-03-24T21:28:22.083Z,93.50
2019-03-24T21:30:53.070Z,93.60
2019-03-24T21:33:23.977Z,93.60
2019-03-24T21:35:55.027Z,92.80
2019-03-24T21:38:25.949Z,94.30
2019-03-24T21:40:57.654Z,93.50
2019-03-24T21:43:28.663Z,94.10
2019-03-24T21:45:59.649Z,93.70
2019-03-24T21:48:30.655Z,93.50
2019-03-24T21:51:02.167Z,94.00
2019-03-24T21:53:40.691Z,93.80
2019-03-24T21:56:05.996Z,94.10
2019-03-24T21:58:37.218Z,93.70
2019-03-24T22:01:08.355Z,93.80
2019-03-24T22:03:40.675Z,93.80
2019-03-24T22:06:12.249Z,93.90
2019-03-24T22:08:43.957Z,93.70
2019-03-24T22:11:15.743Z,93.70
2019-03-24T22:13:46.910Z,93.70
2019-03-24T22:16:18.047Z,93.90
2019-03-24T22:18:49.079Z,93.40
2019-03-24T22:21:20.141Z,93.70
2019-03-24T22:23:52.589Z,93.50
2019-03-24T22:26:25.030Z,93.60
2019-03-24T22:28:56.124Z,93.60
2019-03-24T22:31:29.332Z,93.50
2019-03-24T22:34:00.316Z,93.70
2019-03-24T22:36:31.440Z,93.80
2019-03-24T22:39:02.829Z,93.80
2019-03-24T22:41:35.230Z,93.50
2019-03-24T22:44:06.443Z,93.60
2019-03-24T22:46:37.719Z,94.00
2019-03-24T22:49:08.855Z,93.50
2019-03-24T22:51:40.485Z,94.00
2019-03-24T22:54:11.510Z,93.50
2019-03-24T22:56:42.621Z,94.20
2019-03-24T22:59:13.875Z,94.20
2019-03-24T23:01:45.006Z,94.30
2019-03-24T23:04:16.110Z,94.00
2019-03-24T23:06:47.969Z,94.20
2019-03-24T23:09:18.963Z,94.20
2019-03-24T23:11:50.769Z,94.60
2019-03-24T23:14:21.651Z,94.60
2019-03-24T23:16:52.662Z,94.60
2019-03-24T23:19:23.586Z,94.50
2019-03-24T23:22:13.290Z,94.10
2019-03-24T23:24:44.173Z,94.50
2019-03-24T23:27:15.221Z,94.30
2019-03-24T23:29:46.177Z,94.20
2019-03-24T23:32:17.085Z,94.20
2019-03-24T23:34:48.052Z,94.00
2019-03-24T23:37:19.230Z,94.40
2019-03-24T23:39:50.238Z,94.40
2019-03-24T23:42:21.538Z,94.10
2019-03-24T23:44:52.452Z,94.50
2019-03-24T23:47:23.425Z,94.20
2019-03-24T23:49:54.354Z,94.50
2019-03-24T23:52:25.292Z,94.40
2019-03-24T23:54:56.181Z,93.90
2019-03-24T23:57:27.182Z,94.40
2019-03-24T23:59:58.126Z,94.80
